createdAt,value
2018-09-22T00:00:28.272Z,100111.02
2018-09-22T00:02:57.270Z,100119.88
2018-09-22T00:05:26.193Z,100118.63
2018-09-22T00:07:55.162Z,100117.57
2018-09-22T00:10:24.307Z,100116.53
2018-09-22T00:12:53.284Z,100119.86
2018-09-22T00:15:22.223Z,100123.66
2018-09-22T00:17:51.237Z,100120.42
2018-09-22T00:20:20.308Z,100129.06
2018-09-22T00:22:49.245Z,100125.89
2018-09-22T00:25:18.181Z,100129.23
2018-09-22T00:27:47.134Z,100129.23
2018-09-22T00:30:16.168Z,100133.78
2018-09-22T00:32:45.117Z,100135.41
2018-09-22T00:35:14.061Z,100140.41
2018-09-22T00:37:42.986Z,100137.29
2018-09-22T00:40:12.025Z,100138.31
2018-09-22T00:42:41.212Z,100142.43
2018-09-22T00:45:10.185Z,100135.34
2018-09-22T00:47:39.129Z,100130.09
2018-09-22T00:50:08.065Z,100136.86
2018-09-22T00:52:38.915Z,100136.70
2018-09-22T00:55:07.848Z,100129.00
2018-09-22T00:57:36.807Z,100136.27
2018-09-22T01:00:05.764Z,100141.53
2018-09-22T01:02:38.075Z,100135.61
2018-09-22T01:05:07.198Z,100141.53
2018-09-22T01:07:36.139Z,100154.27
2018-09-22T01:10:05.201Z,100158.05
2018-09-22T01:12:34.668Z,100166.36
2018-09-22T01:15:03.602Z,100168.29
2018-09-22T01:17:32.546Z,100170.83
2018-09-22T01:20:01.482Z,100178.26
2018-09-22T01:22:30.424Z,100180.23
2018-09-22T01:24:59.381Z,100179.95
2018-09-22T01:27:28.303Z,100182.79
2018-09-22T01:29:57.258Z,100186.75
2018-09-22T01:32:26.316Z,100191.33
2018-09-22T01:34:55.366Z,100190.89
2018-09-22T01:37:24.363Z,100200.02
2018-09-22T01:39:53.307Z,100201.30
2018-09-22T01:42:22.335Z,100206.19
2018-09-22T01:44:51.373Z,100208.08
2018-09-22T01:47:22.855Z,100209.42
2018-09-22T01:49:51.775Z,100206.50
2018-09-22T01:52:20.718Z,100211.59
2018-09-22T01:54:49.686Z,100215.91
2018-09-22T01:57:18.611Z,100212.63
2018-09-22T01:59:47.541Z,100214.35
2018-09-22T02:02:16.482Z,100211.94
2018-09-22T02:04:45.426Z,100211.45
2018-09-22T02:07:14.431Z,100208.56
2018-09-22T02:09:43.369Z,100205.66
2018-09-22T02:12:12.297Z,100212.20
2018-09-22T02:14:41.204Z,100211.68
2018-09-22T02:17:10.163Z,100219.67
2018-09-22T02:19:39.099Z,100219.67
2018-09-22T02:22:08.100Z,100213.83
2018-09-22T02:24:37.053Z,100220.52
2018-09-22T02:27:06.135Z,100225.03
2018-09-22T02:29:35.105Z,100230.81
2018-09-22T02:32:04.243Z,100233.98
2018-09-22T02:34:33.281Z,100242.11
2018-09-22T02:37:02.286Z,100234.78
2018-09-22T02:39:31.239Z,100230.99
2018-09-22T02:42:00.195Z,100242.84
2018-09-22T02:44:29.134Z,100243.70
2018-09-22T02:46:58.179Z,100240.19
2018-09-22T02:49:28.213Z,100241.22
2018-09-22T02:51:57.985Z,100251.91
2018-09-22T02:54:27.026Z,100251.91
2018-09-22T02:56:55.987Z,100248.25
2018-09-22T02:59:24.983Z,100247.36
2018-09-22T03:01:53.931Z,100252.15
2018-09-22T03:04:22.865Z,100251.02
2018-09-22T03:06:51.803Z,100246.39
2018-09-22T03:09:20.719Z,100259.05
2018-09-22T03:11:49.660Z,100266.03
2018-09-22T03:14:18.631Z,100270.69
2018-09-22T03:16:47.598Z,100266.63
2018-09-22T03:19:16.618Z,100267.14
2018-09-22T03:21:45.555Z,100271.52
2018-09-22T03:24:14.495Z,100276.30
2018-09-22T03:26:43.424Z,100278.47
2018-09-22T03:29:12.427Z,100288.40
2018-09-22T03:31:41.338Z,100278.72
2018-09-22T03:34:10.273Z,100284.82
2018-09-22T03:36:39.200Z,100286.92
2018-09-22T03:39:09.494Z,100288.37
2018-09-22T03:41:38.530Z,100284.85
2018-09-22T03:44:07.858Z,100278.69
2018-09-22T03:46:36.769Z,100288.95
2018-09-22T03:49:06.053Z,100291.39
2018-09-22T03:51:35.089Z,100290.11
2018-09-22T03:54:04.042Z,100293.56
2018-09-22T03:56:33.368Z,100294.75
2018-09-22T03:59:02.333Z,100284.55
2018-09-22T04:01:31.793Z,100298.31
2018-09-22T04:04:00.725Z,100286.80
2018-09-22T04:06:29.771Z,100292.95
2018-09-22T04:08:58.735Z,100293.73
2018-09-22T04:11:27.671Z,100296.48
2018-09-22T04:13:56.609Z,100300.20
2018-09-22T04:16:25.776Z,100299.94
2018-09-22T04:18:54.731Z,100301.88
2018-09-22T04:21:25.669Z,100300.53
2018-09-22T04:23:54.580Z,100305.11
2018-09-22T04:26:23.500Z,100304.62
2018-09-22T04:28:52.456Z,100301.38
2018-09-22T04:31:21.376Z,100316.16
2018-09-22T04:33:50.439Z,100325.04
2018-09-22T04:36:19.360Z,100319.98
2018-09-22T04:38:48.410Z,100325.63
2018-09-22T04:41:17.350Z,100324.36
2018-09-22T04:43:46.313Z,100326.81
2018-09-22T04:46:15.293Z,100331.64
2018-09-22T04:48:44.285Z,100339.86
2018-09-22T04:51:13.316Z,100338.98
2018-09-22T04:53:42.337Z,100341.97
2018-09-22T04:56:11.302Z,100348.19
2018-09-22T04:58:40.245Z,100341.22
2018-09-22T05:01:09.191Z,100340.95
2018-09-22T05:03:38.766Z,100342.27
2018-09-22T05:06:07.704Z,100357.56
2018-09-22T05:08:36.746Z,100354.38
2018-09-22T05:11:05.816Z,100362.12
2018-09-22T05:13:34.889Z,100356.45
2018-09-22T05:16:03.919Z,100363.14
2018-09-22T05:18:32.889Z,100366.28
2018-09-22T05:21:02.081Z,100365.48
2018-09-22T05:23:31.131Z,100367.13
2018-09-22T05:26:00.483Z,100367.34
2018-09-22T05:28:29.776Z,100364.63
2018-09-22T05:30:58.845Z,100361.45
2018-09-22T05:33:27.887Z,100364.12
2018-09-22T05:35:56.832Z,100366.80
2018-09-22T05:38:25.853Z,100371.08
2018-09-22T05:40:55.007Z,100386.63
2018-09-22T05:43:24.001Z,100384.95
2018-09-22T05:45:53.036Z,100379.28
2018-09-22T05:48:22.001Z,100378.95
2018-09-22T05:50:50.962Z,100380.40
2018-09-22T05:53:19.910Z,100381.27
2018-09-22T05:55:48.925Z,100370.39
2018-09-22T05:58:17.885Z,100380.16
2018-09-22T06:00:46.857Z,100394.97
2018-09-22T06:03:15.878Z,100392.27
2018-09-22T06:05:44.970Z,100385.36
2018-09-22T06:08:13.919Z,100384.69
2018-09-22T06:10:42.874Z,100399.63
2018-09-22T06:13:11.942Z,100390.16
2018-09-22T06:15:40.936Z,100393.59
2018-09-22T06:18:10.408Z,100400.19
2018-09-22T06:20:39.464Z,100404.00
2018-09-22T06:23:08.430Z,100413.92
2018-09-22T06:25:37.464Z,100404.11
2018-09-22T06:28:06.433Z,100404.19
2018-09-22T06:30:35.433Z,100404.53
2018-09-22T06:33:04.545Z,100412.77
2018-09-22T06:35:33.537Z,100418.38
2018-09-22T06:38:02.532Z,100410.11
2018-09-22T06:40:31.735Z,100409.80
2018-09-22T06:43:00.677Z,100418.02
2018-09-22T06:45:29.689Z,100416.50
2018-09-22T06:47:58.756Z,100417.14
2018-09-22T06:50:27.796Z,100426.14
2018-09-22T06:52:56.791Z,100424.05
2018-09-22T06:55:25.754Z,100426.06
2018-09-22T06:57:54.734Z,100434.53
2018-09-22T07:00:23.704Z,100430.06
2018-09-22T07:02:52.691Z,100437.65
2018-09-22T07:05:21.732Z,100438.52
2018-09-22T07:07:50.941Z,100431.03
2018-09-22T07:10:20.263Z,100436.00
2018-09-22T07:12:49.305Z,100436.86
2018-09-22T07:15:18.265Z,100438.27
2018-09-22T07:17:47.262Z,100445.32
2018-09-22T07:20:16.297Z,100447.77
2018-09-22T07:22:50.607Z,100436.98
2018-09-22T07:25:19.630Z,100442.99
2018-09-22T07:27:48.589Z,100436.98
2018-09-22T07:30:17.553Z,100451.86
2018-09-22T07:32:46.488Z,100440.70
2018-09-22T07:35:15.454Z,100454.13
2018-09-22T07:37:44.398Z,100453.87
2018-09-22T07:40:13.389Z,100450.81
2018-09-22T07:42:42.342Z,100446.46
2018-09-22T07:45:11.599Z,100461.26
2018-09-22T07:47:40.571Z,100466.51
2018-09-22T07:50:09.509Z,100472.11
2018-09-22T07:52:38.468Z,100464.86
2018-09-22T07:55:07.430Z,100468.56
2018-09-22T07:57:36.396Z,100481.16
2018-09-22T08:00:05.585Z,100465.38
2018-09-22T08:02:34.559Z,100481.95
2018-09-22T08:05:03.531Z,100472.61
2018-09-22T08:07:32.475Z,100482.34
2018-09-22T08:10:01.426Z,100469.02
2018-09-22T08:12:30.449Z,100471.41
2018-09-22T08:14:59.414Z,100480.18
2018-09-22T08:17:28.395Z,100477.59
2018-09-22T08:19:57.376Z,100470.57
2018-09-22T08:22:26.636Z,100465.83
2018-09-22T08:24:55.597Z,100477.28
2018-09-22T08:27:24.551Z,100487.70
2018-09-22T08:29:53.490Z,100483.76
2018-09-22T08:32:22.453Z,100478.91
2018-09-22T08:34:51.473Z,100480.39
2018-09-22T08:37:20.501Z,100484.21
2018-09-22T08:39:49.430Z,100474.63
2018-09-22T08:42:18.448Z,100487.73
2018-09-22T08:44:47.443Z,100471.03
2018-09-22T08:47:16.401Z,100481.11
2018-09-22T08:49:45.547Z,100475.87
2018-09-22T08:52:14.410Z,100480.29
2018-09-22T08:54:43.361Z,100469.33
2018-09-22T08:57:12.415Z,100476.06
2018-09-22T08:59:41.447Z,100459.97
2018-09-22T09:02:10.443Z,100472.91
2018-09-22T09:04:39.466Z,100472.80
2018-09-22T09:07:08.437Z,100460.64
2018-09-22T09:09:37.373Z,100467.67
2018-09-22T09:12:06.590Z,100449.59
2018-09-22T09:14:35.567Z,100473.49
2018-09-22T09:17:04.740Z,100469.55
2018-09-22T09:19:33.700Z,100469.21
2018-09-22T09:22:02.681Z,100464.79
2018-09-22T09:24:31.652Z,100468.70
2018-09-22T09:27:00.782Z,100469.27
2018-09-22T09:29:29.787Z,100460.66
2018-09-22T09:31:58.752Z,100468.91
2018-09-22T09:34:27.787Z,100458.27
2018-09-22T09:36:56.735Z,100462.33
2018-09-22T09:39:25.694Z,100454.77
2018-09-22T09:41:54.673Z,100457.00
2018-09-22T09:44:23.632Z,100457.13
2018-09-22T09:46:52.609Z,100478.52
2018-09-22T09:49:21.622Z,100475.59
2018-09-22T09:51:50.616Z,100476.12
2018-09-22T09:54:19.560Z,100489.38
2018-09-22T09:56:48.582Z,100493.34
2018-09-22T09:59:17.614Z,100473.69
2018-09-22T10:01:46.547Z,100485.53
2018-09-22T10:04:15.532Z,100475.59
2018-09-22T10:06:44.490Z,100480.55
2018-09-22T10:09:14.209Z,100482.84
2018-09-22T10:11:43.190Z,100470.87
2018-09-22T10:14:12.167Z,100480.52
2018-09-22T10:16:41.106Z,100476.72
2018-09-22T10:19:10.057Z,100467.89
2018-09-22T10:21:39.040Z,100478.19
2018-09-22T10:24:08.019Z,100465.69
2018-09-22T10:26:36.989Z,100462.55
2018-09-22T10:29:05.947Z,100451.30
2018-09-22T10:31:35.427Z,100478.62
2018-09-22T10:34:04.365Z,100462.14
2018-09-22T10:36:33.344Z,100454.27
2018-09-22T10:39:02.324Z,100462.08
2018-09-22T10:41:31.275Z,100465.88
2018-09-22T10:44:00.322Z,100462.47
2018-09-22T10:46:29.418Z,100459.50
2018-09-22T10:48:58.589Z,100466.37
2018-09-22T10:51:27.555Z,100459.03
2018-09-22T10:53:56.674Z,100459.72
2018-09-22T10:56:25.708Z,100455.84
2018-09-22T10:58:54.671Z,100444.87
2018-09-22T11:01:23.680Z,100458.67
2018-09-22T11:03:52.812Z,100454.31
2018-09-22T11:06:21.796Z,100461.08
2018-09-22T11:08:50.728Z,100462.80
2018-09-22T11:11:19.718Z,100453.78
2018-09-22T11:13:48.764Z,100452.03
2018-09-22T11:16:17.759Z,100449.30
2018-09-22T11:18:46.867Z,100457.20
2018-09-22T11:21:15.843Z,100452.88
2018-09-22T11:23:44.825Z,100455.45
2018-09-22T11:26:13.804Z,100447.94
2018-09-22T11:28:42.770Z,100443.08
2018-09-22T11:31:11.834Z,100441.33
2018-09-22T11:33:40.792Z,100439.85
2018-09-22T11:36:09.835Z,100427.69
2018-09-22T11:38:38.789Z,100429.09
2018-09-22T11:41:08.148Z,100428.36
2018-09-22T11:43:37.155Z,100431.58
2018-09-22T11:46:06.098Z,100425.77
2018-09-22T11:48:35.089Z,100431.42
2018-09-22T11:51:04.157Z,100439.47
2018-09-22T11:53:34.316Z,100431.70
2018-09-22T11:56:03.264Z,100428.87
2018-09-22T11:58:32.301Z,100429.52
2018-09-22T12:01:01.821Z,100426.13
2018-09-22T12:03:30.908Z,100440.52
2018-09-22T12:05:59.969Z,100439.30
2018-09-22T12:08:32.636Z,100428.61
2018-09-22T12:11:01.727Z,100418.44
2018-09-22T12:13:30.708Z,100427.34
2018-09-22T12:15:59.717Z,100427.69
2018-09-22T12:18:28.968Z,100416.48
2018-09-22T12:20:58.105Z,100416.09
2018-09-22T12:23:27.136Z,100424.52
2018-09-22T12:25:56.201Z,100435.66
2018-09-22T12:28:25.290Z,100438.62
2018-09-22T12:30:59.610Z,100434.98
2018-09-22T12:33:29.978Z,100426.67
2018-09-22T12:35:58.981Z,100417.64
2018-09-22T12:38:27.987Z,100427.64
2018-09-22T12:40:59.638Z,100412.78
2018-09-22T12:43:28.697Z,100424.17
2018-09-22T12:45:57.737Z,100411.30
2018-09-22T12:48:26.767Z,100411.67
2018-09-22T12:50:56.187Z,100402.19
2018-09-22T12:53:26.492Z,100406.39
2018-09-22T12:55:58.429Z,100397.33
2018-09-22T12:58:27.775Z,100405.73
2018-09-22T13:00:56.759Z,100400.95
2018-09-22T13:03:25.744Z,100406.78
2018-09-22T13:05:54.691Z,100409.23
2018-09-22T13:08:23.770Z,100406.13
2018-09-22T13:10:52.717Z,100417.36
2018-09-22T13:13:21.710Z,100421.62
2018-09-22T13:15:50.676Z,100419.83
2018-09-22T13:18:19.672Z,100427.03
2018-09-22T13:20:48.668Z,100408.95
2018-09-22T13:23:17.598Z,100406.55
2018-09-22T13:25:46.555Z,100397.03
2018-09-22T13:28:15.516Z,100395.31
2018-09-22T13:30:44.458Z,100388.77
2018-09-22T13:33:13.496Z,100381.79
2018-09-22T13:35:42.455Z,100385.45
2018-09-22T13:38:11.433Z,100384.85
2018-09-22T13:40:40.373Z,100381.95
2018-09-22T13:43:09.538Z,100369.57
2018-09-22T13:45:38.462Z,100383.36
2018-09-22T13:48:07.422Z,100385.09
2018-09-22T13:50:36.352Z,100382.61
2018-09-22T13:53:05.484Z,100390.14
2018-09-22T13:55:34.482Z,100398.28
2018-09-22T13:58:03.424Z,100391.00
2018-09-22T14:00:32.377Z,100401.86
2018-09-22T14:03:01.455Z,100400.38
2018-09-22T14:05:30.396Z,100403.86
2018-09-22T14:07:59.618Z,100398.73
2018-09-22T14:10:28.580Z,100391.35
2018-09-22T14:12:57.601Z,100376.77
2018-09-22T14:15:26.508Z,100372.66
2018-09-22T14:17:55.450Z,100374.55
2018-09-22T14:20:24.403Z,100383.53
2018-09-22T14:22:53.358Z,100373.56
2018-09-22T14:25:22.341Z,100370.27
2018-09-22T14:27:51.289Z,100358.70
2018-09-22T14:30:20.317Z,100361.24
2018-09-22T14:32:49.355Z,100357.14
2018-09-22T14:35:18.284Z,100362.80
2018-09-22T14:37:47.391Z,100354.34
2018-09-22T14:40:16.470Z,100353.67
2018-09-22T14:42:45.527Z,100351.02
2018-09-22T14:45:14.473Z,100332.83
2018-09-22T14:47:43.445Z,100339.55
2018-09-22T14:50:12.355Z,100344.25
2018-09-22T14:52:41.297Z,100347.95
2018-09-22T14:55:10.267Z,100356.61
2018-09-22T14:57:39.187Z,100368.16
2018-09-22T15:00:08.132Z,100358.22
2018-09-22T15:02:37.094Z,100368.75
2018-09-22T15:05:06.216Z,100365.95
2018-09-22T15:07:35.158Z,100361.41
2018-09-22T15:10:04.173Z,100343.31
2018-09-22T15:12:33.183Z,100329.84
2018-09-22T15:15:02.201Z,100333.69
2018-09-22T15:17:31.264Z,100333.27
2018-09-22T15:20:00.277Z,100327.84
2018-09-22T15:22:29.308Z,100328.34
2018-09-22T15:24:58.258Z,100330.50
2018-09-22T15:27:27.224Z,100317.73
2018-09-22T15:29:56.175Z,100313.50
2018-09-22T15:32:25.125Z,100310.65
2018-09-22T15:34:54.068Z,100303.23
2018-09-22T15:37:23.168Z,100299.64
2018-09-22T15:39:52.133Z,100307.30
2018-09-22T15:42:21.064Z,100312.23
2018-09-22T15:44:50.045Z,100301.56
2018-09-22T15:47:18.984Z,100293.12
2018-09-22T15:49:47.929Z,100280.45
2018-09-22T15:52:16.926Z,100288.49
2018-09-22T15:54:45.802Z,100278.95
2018-09-22T15:57:14.739Z,100295.77
2018-09-22T15:59:43.814Z,100302.78
2018-09-22T16:02:12.801Z,100288.03
2018-09-22T16:04:41.785Z,100283.48
2018-09-22T16:07:10.708Z,100276.89
2018-09-22T16:09:39.911Z,100279.26
2018-09-22T16:12:08.928Z,100276.56
2018-09-22T16:14:38.164Z,100269.30
2018-09-22T16:17:07.121Z,100262.54
2018-09-22T16:19:36.139Z,100266.05
2018-09-22T16:22:05.118Z,100265.00
2018-09-22T16:24:34.164Z,100266.08
2018-09-22T16:27:03.108Z,100268.95
2018-09-22T16:29:33.753Z,100278.24
2018-09-22T16:32:02.737Z,100276.81
2018-09-22T16:34:31.719Z,100271.53
2018-09-22T16:37:00.957Z,100270.59
2018-09-22T16:39:29.927Z,100274.54
2018-09-22T16:41:58.942Z,100282.09
2018-09-22T16:44:27.903Z,100286.48
2018-09-22T16:46:56.914Z,100286.79
2018-09-22T16:49:26.304Z,100280.55
2018-09-22T16:51:55.189Z,100275.45
2018-09-22T16:54:24.377Z,100274.80
2018-09-22T16:56:53.396Z,100267.14
2018-09-22T16:59:23.813Z,100268.41
2018-09-22T17:01:53.367Z,100272.53
2018-09-22T17:04:22.607Z,100270.36
2018-09-22T17:06:51.961Z,100278.39
2018-09-22T17:09:20.990Z,100278.64
2018-09-22T17:11:50.018Z,100273.00
2018-09-22T17:14:18.957Z,100264.31
2018-09-22T17:16:47.944Z,100268.17
2018-09-22T17:19:16.944Z,100267.86
2018-09-22T17:21:45.917Z,100252.80
2018-09-22T17:24:15.463Z,100259.40
2018-09-22T17:26:45.645Z,100267.50
2018-09-22T17:29:14.688Z,100260.69
2018-09-22T17:31:43.649Z,100259.59
2018-09-22T17:34:12.647Z,100265.23
2018-09-22T17:36:41.652Z,100268.37
2018-09-22T17:39:11.106Z,100266.16
2018-09-22T17:41:40.157Z,100276.98
2018-09-22T17:44:09.239Z,100275.44
2018-09-22T17:46:38.245Z,100269.61
2018-09-22T17:49:07.208Z,100278.75
2018-09-22T17:51:36.312Z,100283.77
2018-09-22T17:54:05.342Z,100270.98
2018-09-22T17:56:34.294Z,100275.89
2018-09-22T17:59:03.258Z,100268.41
2018-09-22T18:01:32.196Z,100262.07
2018-09-22T18:04:01.251Z,100263.24
2018-09-22T18:06:30.271Z,100256.79
2018-09-22T18:08:59.259Z,100266.50
2018-09-22T18:11:28.372Z,100268.88
2018-09-22T18:13:57.355Z,100261.45
2018-09-22T18:16:26.335Z,100263.21
2018-09-22T18:18:55.477Z,100263.17
2018-09-22T18:21:24.449Z,100261.97
2018-09-22T18:23:53.468Z,100264.54
2018-09-22T18:26:22.429Z,100276.57
2018-09-22T18:28:51.405Z,100278.47
2018-09-22T18:31:20.376Z,100273.27
2018-09-22T18:33:49.399Z,100273.21
2018-09-22T18:36:18.330Z,100276.97
2018-09-22T18:38:47.547Z,100281.64
2018-09-22T18:41:16.656Z,100289.62
2018-09-22T18:43:45.622Z,100293.87
2018-09-22T18:46:14.584Z,100286.85
2018-09-22T18:48:43.686Z,100275.83
2018-09-22T18:51:12.726Z,100270.38
2018-09-22T18:53:41.654Z,100270.38
2018-09-22T18:56:10.697Z,100271.30
2018-09-22T18:58:39.828Z,100262.53
2018-09-22T19:01:08.766Z,100252.69
2018-09-22T19:03:37.813Z,100265.97
2018-09-22T19:06:07.146Z,100268.09
2018-09-22T19:08:36.093Z,100279.92
2018-09-22T19:11:05.013Z,100265.52
2018-09-22T19:13:42.791Z,100253.81
2018-09-22T19:16:17.083Z,100250.15
2018-09-22T19:18:49.577Z,100260.05
2018-09-22T19:21:27.988Z,100267.03
2018-09-22T19:24:00.962Z,100264.25
2018-09-22T19:26:33.453Z,100276.41
2018-09-22T19:29:06.251Z,100271.91
2018-09-22T19:31:39.641Z,100276.27
2018-09-22T19:35:11.863Z,100272.92
2018-09-22T19:37:51.104Z,100275.77
2018-09-22T19:40:26.336Z,100273.73
2018-09-22T19:43:00.424Z,100259.48
2018-09-22T19:45:32.106Z,100271.83
2018-09-22T19:48:09.460Z,100262.08
2018-09-22T19:50:46.614Z,100259.94
2018-09-22T19:53:15.556Z,100266.57
2018-09-22T19:55:44.645Z,100268.32
2018-09-22T19:58:13.672Z,100256.11
2018-09-22T20:00:42.675Z,100253.14
2018-09-22T20:03:11.699Z,100252.66
2018-09-22T20:05:40.725Z,100250.48
2018-09-22T20:08:09.804Z,100271.52
2018-09-22T20:10:38.788Z,100274.73
2018-09-22T20:13:07.842Z,100276.59
2018-09-22T20:15:36.951Z,100269.34
2018-09-22T20:18:05.888Z,100262.47
2018-09-22T20:20:34.866Z,100261.03
2018-09-22T20:23:03.857Z,100264.47
2018-09-22T20:25:32.867Z,100273.26
2018-09-22T20:28:01.866Z,100276.17
2018-09-22T20:30:31.271Z,100278.16
2018-09-22T20:33:00.223Z,100264.33
2018-09-22T20:35:29.228Z,100263.42
2018-09-22T20:37:58.448Z,100261.91
2018-09-22T20:40:27.400Z,100255.34
2018-09-22T20:42:56.331Z,100238.58
2018-09-22T20:45:25.324Z,100236.41
2018-09-22T20:47:54.485Z,100232.23
2018-09-22T20:50:23.745Z,100253.83
2018-09-22T20:52:52.670Z,100247.58
2018-09-22T20:55:23.504Z,100261.80
2018-09-22T20:57:52.425Z,100266.34
2018-09-22T21:00:21.409Z,100266.08
2018-09-22T21:02:50.349Z,100261.53
2018-09-22T21:05:19.524Z,100260.69
2018-09-22T21:07:48.438Z,100271.33
2018-09-22T21:10:17.394Z,100271.56
2018-09-22T21:12:46.452Z,100265.42
2018-09-22T21:15:15.390Z,100268.09
2018-09-22T21:17:44.325Z,100275.56
2018-09-22T21:20:13.294Z,100273.03
2018-09-22T21:22:42.240Z,100270.70
2018-09-22T21:25:11.179Z,100255.91
2018-09-22T21:27:40.128Z,100249.06
2018-09-22T21:30:09.063Z,100257.76
2018-09-22T21:32:38.020Z,100257.95
2018-09-22T21:35:06.993Z,100262.23
2018-09-22T21:37:35.974Z,100263.03
2018-09-22T21:40:04.972Z,100264.15
2018-09-22T21:42:34.002Z,100268.89
2018-09-22T21:45:02.929Z,100260.35
2018-09-22T21:47:31.897Z,100251.56
2018-09-22T21:50:00.875Z,100245.38
2018-09-22T21:52:29.906Z,100244.25
2018-09-22T21:54:58.854Z,100244.09
2018-09-22T21:57:27.821Z,100249.92
2018-09-22T21:59:56.859Z,100256.47
2018-09-22T22:02:25.860Z,100251.01
2018-09-22T22:04:54.831Z,100232.95
2018-09-22T22:07:23.760Z,100236.78
2018-09-22T22:09:52.694Z,100231.67
2018-09-22T22:12:21.661Z,100237.20
2018-09-22T22:14:50.677Z,100234.86
2018-09-22T22:17:19.630Z,100241.63
2018-09-22T22:19:48.726Z,100240.28
2018-09-22T22:22:17.662Z,100241.08
2018-09-22T22:24:46.708Z,100239.23
2018-09-22T22:27:15.658Z,100255.59
2018-09-22T22:29:44.613Z,100245.98
2018-09-22T22:32:13.602Z,100242.36
2018-09-22T22:34:42.578Z,100249.67
2018-09-22T22:37:11.721Z,100245.13
2018-09-22T22:39:40.756Z,100243.16
2018-09-22T22:42:09.834Z,100252.11
2018-09-22T22:44:38.841Z,100261.80
2018-09-22T22:47:07.786Z,100265.18
2018-09-22T22:49:36.857Z,100264.23
2018-09-22T22:52:06.151Z,100253.83
2018-09-22T22:54:35.157Z,100259.52
2018-09-22T22:57:04.097Z,100269.64
2018-09-22T22:59:33.042Z,100260.72
2018-09-22T23:02:01.996Z,100264.09
2018-09-22T23:04:31.648Z,100267.52
2018-09-22T23:07:00.801Z,100273.04
2018-09-22T23:09:29.856Z,100276.47
2018-09-22T23:11:58.936Z,100294.47
2018-09-22T23:14:28.092Z,100300.05
2018-09-22T23:16:57.080Z,100298.20
2018-09-22T23:19:25.998Z,100303.77
2018-09-22T23:21:55.137Z,100307.12
2018-09-22T23:24:24.049Z,100303.78
2018-09-22T23:26:54.610Z,100308.92
2018-09-22T23:29:23.700Z,100301.97
2018-09-22T23:31:52.636Z,100296.30
2018-09-22T23:34:21.629Z,100294.98
2018-09-22T23:36:50.623Z,100298.98
2018-09-22T23:39:19.615Z,100290.43
2018-09-22T23:41:48.628Z,100291.34
2018-09-22T23:44:17.739Z,100281.37
2018-09-22T23:46:46.695Z,100286.00
2018-09-22T23:49:15.665Z,100289.52
2018-09-22T23:51:44.659Z,100292.46
2018-09-22T23:54:13.673Z,100289.84
2018-09-22T23:56:42.638Z,100294.75
2018-09-22T23:59:11.648Z,100296.97
